Time;durP1;ratioP1;P1;durP2;ratioP2;P2;SDS_P1;SDS_P2;PMS_P1;PMS_P2;Temp;Humidity;BMP_temperature;BMP_pressure;BME280_temperature;BME280_humidity;BME280_pressure;Samples;Min_cycle;Max_cycle;Signal;HPM_P1;HPM_P2
2022/06/24 00:01:57;;;;;;;6.18;2.63;;;;;;;25.32;48.40;100566.63;5074353;28;20468;-61
2022/06/24 00:04:25;;;;;;;5.18;2.78;;;;;;;25.31;48.43;100591.66;5075091;28;20021;-61
2022/06/24 00:06:51;;;;;;;7.22;2.92;;;;;;;25.32;48.43;100624.47;5075047;28;20032;-61
2022/06/24 00:09:17;;;;;;;5.55;2.50;;;;;;;25.33;49.06;100650.97;5074021;28;20036;-61
2022/06/24 00:11:43;;;;;;;5.38;2.47;;;;;;;25.31;48.55;100645.00;5075093;28;20411;-61
2022/06/24 00:14:11;;;;;;;5.25;2.60;;;;;;;25.31;48.74;100634.31;5073638;28;20100;-61
2022/06/24 00:17:00;;;;;;;4.53;2.30;;;;;;;25.32;48.78;100633.28;5074749;28;20031;-61
2022/06/24 00:19:31;;;;;;;5.32;2.50;;;;;;;25.31;49.02;100642.31;5074656;28;20377;-61
2022/06/24 00:21:59;;;;;;;6.57;2.92;;;;;;;25.30;48.90;100647.84;5073748;28;20086;-61
2022/06/24 00:24:24;;;;;;;6.95;2.75;;;;;;;25.30;48.73;100671.84;5073515;28;20426;-61
2022/06/24 00:26:49;;;;;;;5.57;2.60;;;;;;;25.30;48.76;100691.31;5074597;28;20099;-61
2022/06/24 00:29:18;;;;;;;5.00;2.35;;;;;;;25.30;49.00;100704.66;5073369;28;20048;-61
2022/06/24 00:32:07;;;;;;;5.80;2.72;;;;;;;25.29;48.92;100700.34;5074447;28;20100;-61
2022/06/24 00:34:37;;;;;;;7.43;3.08;;;;;;;25.29;48.98;100710.16;5074661;28;20027;-61
2022/06/24 00:37:23;;;;;;;7.25;2.80;;;;;;;25.29;49.16;100716.34;5073407;28;20066;-61
2022/06/24 00:39:48;;;;;;;5.75;2.70;;;;;;;25.29;49.30;100736.84;5074285;28;20100;-61
2022/06/24 00:42:15;;;;;;;7.30;2.92;;;;;;;25.29;49.12;100734.16;5073362;28;20067;-61
2022/06/24 00:44:59;;;;;;;5.55;2.63;;;;;;;25.29;49.10;100720.84;5074368;28;20074;-61
2022/06/24 00:47:27;;;;;;;5.55;3.10;;;;;;;25.28;49.44;100711.19;5074317;28;20032;-61
2022/06/24 00:49:56;;;;;;;5.85;2.80;;;;;;;25.28;49.10;100695.19;5073593;28;20037;-62
2022/06/24 00:52:22;;;;;;;6.03;2.78;;;;;;;25.27;49.29;100699.66;5073936;28;20032;-61
2022/06/24 00:54:47;;;;;;;6.32;3.25;;;;;;;25.27;49.26;100704.16;5074038;28;20025;-61
2022/06/24 00:57:16;;;;;;;7.15;2.75;;;;;;;25.27;49.15;100707.66;5073029;28;20028;-61
2022/06/24 00:59:42;;;;;;;7.05;3.00;;;;;;;25.26;49.49;100707.81;5074077;28;20024;-62
2022/06/24 01:02:08;;;;;;;6.03;2.65;;;;;;;25.26;49.35;100697.16;5073624;28;20086;-62
2022/06/24 01:04:34;;;;;;;7.25;3.08;;;;;;;25.25;49.08;100696.34;5073086;28;20481;-62
2022/06/24 01:07:05;;;;;;;6.20;2.75;;;;;;;25.25;49.46;100693.66;5073452;28;20043;-61
2022/06/24 01:09:31;;;;;;;5.03;2.88;;;;;;;25.25;49.00;100674.19;5073916;28;20070;-61
2022/06/24 01:11:56;;;;;;;5.55;2.95;;;;;;;25.25;49.49;100661.66;5072755;28;20032;-61
2022/06/24 01:14:22;;;;;;;5.13;2.70;;;;;;;25.24;49.17;100643.16;5073586;28;20047;-61
2022/06/24 01:16:47;;;;;;;5.15;2.72;;;;;;;25.23;49.01;100639.69;5073601;28;20521;-62
2022/06/24 01:19:14;;;;;;;5.50;2.88;;;;;;;25.24;49.06;100644.00;5072366;28;20027;-62
2022/06/24 01:21:40;;;;;;;9.00;3.00;;;;;;;25.24;49.43;100640.50;5073432;28;20484;-62
2022/06/24 01:24:07;;;;;;;6.88;3.20;;;;;;;25.24;49.21;100640.50;5073375;28;20077;-62
2022/06/24 01:26:33;;;;;;;4.70;3.08;;;;;;;25.23;48.82;100642.34;5072760;28;20028;-61
2022/06/24 01:28:58;;;;;;;6.25;2.92;;;;;;;25.22;49.38;100643.34;5072919;28;20040;-62
2022/06/24 01:31:24;;;;;;;5.63;2.90;;;;;;;25.22;48.88;100638.00;5072447;28;20062;-62
2022/06/24 01:33:49;;;;;;;7.85;2.85;;;;;;;25.21;49.30;100628.34;5073214;28;20033;-62
2022/06/24 01:36:14;;;;;;;4.30;2.15;;;;;;;25.22;49.04;100637.19;5073179;28;20558;-62
2022/06/24 01:38:39;;;;;;;4.72;2.28;;;;;;;25.21;49.27;100639.00;5072541;28;20024;-62
2022/06/24 01:41:05;;;;;;;4.10;2.15;;;;;;;25.21;49.38;100639.00;5073043;28;20025;-62
2022/06/24 01:43:30;;;;;;;5.95;2.67;;;;;;;25.20;48.94;100634.69;5073708;28;20021;-62
2022/06/24 01:45:56;;;;;;;6.60;2.20;;;;;;;25.20;49.32;100620.53;5072206;28;20055;-62
2022/06/24 01:48:21;;;;;;;5.93;2.15;;;;;;;25.20;49.22;100604.50;5073024;28;20075;-62
2022/06/24 01:50:49;;;;;;;3.92;1.98;;;;;;;25.20;48.90;100612.53;5073270;28;20032;-62
2022/06/24 01:53:14;;;;;;;6.50;2.17;;;;;;;25.19;49.31;100601.03;5072033;28;20027;-62
2022/06/24 01:55:40;;;;;;;4.70;2.00;;;;;;;25.17;49.04;100601.22;5073367;28;20032;-62
2022/06/24 01:58:14;;;;;;;5.35;2.08;;;;;;;25.18;49.03;100602.03;5072836;28;20822;-62
2022/06/24 02:00:39;;;;;;;6.95;2.20;;;;;;;25.17;49.34;100603.88;5071625;28;20115;-63
2022/06/24 02:03:05;;;;;;;5.10;1.80;;;;;;;25.17;49.16;100600.38;5072454;28;20048;-62
2022/06/24 02:05:31;;;;;;;6.18;1.80;;;;;;;25.17;48.92;100592.38;5072712;28;20277;-62
2022/06/24 02:07:57;;;;;;;5.57;2.10;;;;;;;25.16;48.85;100591.53;5071747;28;20024;-62
2022/06/24 02:15:53;;;;;;;5.72;2.03;;;;;;;25.15;49.23;100608.56;5077702;28;20035;-62
2022/06/24 02:18:19;;;;;;;3.95;1.67;;;;;;;25.15;49.06;100610.38;5072384;28;20458;-61
2022/06/24 02:20:44;;;;;;;4.63;1.88;;;;;;;25.15;49.25;100599.72;5071991;28;20537;-62
2022/06/24 02:23:10;;;;;;;3.75;1.60;;;;;;;25.14;49.19;100598.06;5072243;28;20048;-62
2022/06/24 02:25:35;;;;;;;3.42;1.60;;;;;;;25.13;49.26;100596.41;5072614;28;20033;-62
2022/06/24 02:28:00;;;;;;;3.05;1.45;;;;;;;25.14;48.95;100592.75;5071157;28;20535;-61
2022/06/24 02:30:28;;;;;;;4.03;1.70;;;;;;;25.13;48.99;100586.59;5072747;28;20103;-61
2022/06/24 02:32:54;;;;;;;3.47;1.52;;;;;;;25.12;48.92;100581.44;5072653;28;20394;-61
2022/06/24 02:35:21;;;;;;;4.72;1.60;;;;;;;25.12;49.01;100582.25;5071471;28;20485;-61
2022/06/24 02:37:50;;;;;;;3.53;1.85;;;;;;;25.12;49.21;100570.78;5072451;28;20032;-61
2022/06/24 02:42:59;;;;;;;3.28;1.38;;;;;;;25.11;48.77;100558.44;5071707;28;20407;-61
2022/06/24 02:45:24;;;;;;;2.42;1.20;;;;;;;25.10;48.92;100564.75;5071820;28;20025;-61
2022/06/24 02:47:50;;;;;;;3.95;1.50;;;;;;;25.10;48.92;100564.75;5071777;28;20037;-61
2022/06/24 02:50:15;;;;;;;4.70;1.40;;;;;;;25.09;48.75;100561.28;5071323;28;20418;-61
2022/06/24 02:52:41;;;;;;;3.80;1.52;;;;;;;25.09;48.95;100555.94;5072255;28;20498;-61
2022/06/24 02:55:06;;;;;;;2.90;1.20;;;;;;;25.09;48.84;100560.47;5072056;28;20028;-61
2022/06/24 02:57:32;;;;;;;3.25;1.40;;;;;;;25.09;49.28;100547.94;5071375;28;20495;-61
2022/06/24 02:59:57;;;;;;;3.65;1.33;;;;;;;25.08;49.02;100554.28;5072142;28;20025;-61
2022/06/24 03:02:22;;;;;;;4.38;1.70;;;;;;;25.08;49.05;100542.78;5072124;28;20416;-61
2022/06/24 03:04:48;;;;;;;3.20;1.40;;;;;;;25.07;48.89;100539.31;5071449;28;20108;-61
2022/06/24 03:07:13;;;;;;;4.17;1.33;;;;;;;25.06;48.85;100542.97;5071772;28;20297;-61
2022/06/24 03:09:38;;;;;;;3.00;1.50;;;;;;;25.07;48.98;100543.78;5072156;28;20265;-61
2022/06/24 03:12:04;;;;;;;2.70;1.20;;;;;;;25.07;49.16;100541.13;5070841;28;20300;-61
2022/06/24 03:14:29;;;;;;;5.05;1.10;;;;;;;25.06;49.21;100539.47;5072219;28;20045;-61
2022/06/24 03:16:55;;;;;;;11.80;1.30;;;;;;;25.06;48.90;100534.97;5071313;28;20054;-61
2022/06/24 03:19:20;;;;;;;5.03;1.40;;;;;;;25.06;48.99;100531.47;5074608;28;20499;-61
2022/06/24 03:21:45;;;;;;;2.60;1.20;;;;;;;25.05;49.23;100527.97;5075785;28;20065;-61
2022/06/24 03:24:10;;;;;;;3.33;1.37;;;;;;;25.04;49.26;100530.81;5074695;28;20274;-61
2022/06/24 03:26:36;;;;;;;2.90;1.27;;;;;;;25.04;48.84;100530.81;5075586;28;20291;-61
2022/06/24 03:29:01;;;;;;;3.70;1.17;;;;;;;25.04;49.17;100528.16;5075211;28;20297;-61
2022/06/24 03:31:26;;;;;;;4.78;1.30;;;;;;;25.04;49.33;100534.31;5074878;28;20614;-61
2022/06/24 03:33:53;;;;;;;3.60;1.50;;;;;;;25.03;49.17;100530.00;5075691;28;20029;-61
2022/06/24 03:36:18;;;;;;;3.13;1.10;;;;;;;25.03;49.33;100526.50;5075261;28;20276;-61
2022/06/24 03:38:44;;;;;;;3.77;1.27;;;;;;;25.03;49.31;100516.66;5074656;28;20032;-61
2022/06/24 03:41:09;;;;;;;4.93;1.30;;;;;;;25.03;48.88;100513.19;5075063;28;20816;-61
2022/06/24 03:43:34;;;;;;;2.23;1.07;;;;;;;25.01;48.79;100516.03;5075550;28;20284;-61
2022/06/24 03:46:03;;;;;;;3.08;1.30;;;;;;;25.02;48.93;100514.19;5074532;28;20285;-61
2022/06/24 03:48:29;;;;;;;2.95;1.10;;;;;;;25.01;49.15;100509.84;5075382;28;20396;-62
2022/06/24 03:50:54;;;;;;;3.80;1.35;;;;;;;25.00;49.06;100517.00;5075370;28;20099;-61
2022/06/24 03:53:19;;;;;;;2.85;1.10;;;;;;;25.01;48.81;100531.16;5074037;28;20103;-61
2022/06/24 03:55:52;;;;;;;3.77;1.10;;;;;;;25.00;49.07;100549.00;5075616;28;20029;-61
2022/06/24 03:58:19;;;;;;;2.72;1.10;;;;;;;24.99;48.89;100547.34;5074842;28;20282;-61
2022/06/24 04:00:45;;;;;;;2.72;1.08;;;;;;;24.99;49.19;100545.53;5074608;28;20024;-61
2022/06/24 04:03:10;;;;;;;2.42;1.10;;;;;;;24.99;49.06;100548.19;5074629;28;20112;-61
2022/06/24 04:05:35;;;;;;;2.55;1.00;;;;;;;24.99;49.06;100558.00;5074912;28;20107;-61
2022/06/24 04:08:01;;;;;;;2.28;1.00;;;;;;;24.98;48.76;100564.34;5073870;28;20146;-61
2022/06/24 04:10:26;;;;;;;2.70;1.00;;;;;;;24.98;49.15;100567.84;5074888;28;20041;-62
2022/06/24 04:12:55;;;;;;;3.95;1.10;;;;;;;24.98;49.15;100567.84;5074817;28;20028;-61
2022/06/24 04:15:20;;;;;;;3.15;1.20;;;;;;;24.99;48.94;100576.66;5074114;28;20102;-61
2022/06/24 04:17:49;;;;;;;4.80;1.23;;;;;;;24.97;48.80;100570.69;5074830;28;20502;-61
2022/06/24 04:20:17;;;;;;;2.60;0.93;;;;;;;24.96;49.05;100569.88;5073596;28;20032;-61
2022/06/24 04:22:43;;;;;;;2.80;1.00;;;;;;;24.96;49.17;100575.19;5074648;28;20137;-61
2022/06/24 04:25:09;;;;;;;2.75;1.15;;;;;;;24.96;49.12;100574.38;5074547;28;20041;-61
2022/06/24 04:27:35;;;;;;;3.42;1.38;;;;;;;24.96;49.06;100574.38;5073928;28;20135;-62
2022/06/24 04:30:25;;;;;;;2.53;0.90;;;;;;;24.94;48.73;100582.53;5073866;28;20519;-61
2022/06/24 04:32:51;;;;;;;10.43;1.30;;;;;;;24.94;48.66;100582.53;5059839;28;20059;-62
2022/06/24 04:35:16;;;;;;;2.43;1.17;;;;;;;24.94;48.87;100565.69;5073313;28;20111;-61
2022/06/24 04:37:42;;;;;;;3.28;1.25;;;;;;;24.92;49.18;100562.41;5074533;28;20025;-61
2022/06/24 04:40:10;;;;;;;2.65;1.23;;;;;;;24.92;48.71;100571.22;5074265;28;20052;-62
2022/06/24 04:42:36;;;;;;;3.10;1.10;;;;;;;24.92;48.86;100563.22;5073981;28;20463;-61
2022/06/24 04:45:02;;;;;;;2.75;1.10;;;;;;;24.92;49.01;100563.22;5074026;28;20047;-61
2022/06/24 04:47:27;;;;;;;3.25;1.15;;;;;;;24.93;49.03;100562.22;5074138;28;20491;-61
2022/06/24 04:49:53;;;;;;;3.10;1.27;;;;;;;24.92;49.12;100557.88;5073321;28;20111;-61
2022/06/24 04:52:18;;;;;;;3.08;1.30;;;;;;;24.92;48.82;100555.22;5073951;28;20016;-61
2022/06/24 04:54:44;;;;;;;3.50;1.27;;;;;;;24.91;48.83;100558.91;5074143;28;20108;-61
2022/06/24 04:57:11;;;;;;;3.80;1.10;;;;;;;24.92;49.06;100565.06;5072770;28;20304;-61
2022/06/24 04:59:36;;;;;;;3.83;1.30;;;;;;;24.91;49.00;100563.38;5074090;28;20031;-61
2022/06/24 05:02:02;;;;;;;3.15;1.00;;;;;;;24.91;48.88;100561.56;5073607;28;20028;-61
2022/06/24 05:04:27;;;;;;;2.63;1.17;;;;;;;24.92;48.95;100573.06;5072965;28;20021;-61
2022/06/24 05:06:55;;;;;;;2.80;1.20;;;;;;;24.90;48.88;100577.75;5074043;28;20028;-61
2022/06/24 05:09:20;;;;;;;3.35;1.27;;;;;;;24.91;49.17;100571.38;5073887;28;20281;-61
2022/06/24 05:11:48;;;;;;;4.22;1.30;;;;;;;24.90;49.32;100570.56;5073049;28;20415;-61
2022/06/24 05:14:14;;;;;;;3.30;1.23;;;;;;;24.90;48.76;100561.75;5073225;28;20031;-61
2022/06/24 05:16:41;;;;;;;4.63;1.23;;;;;;;24.90;48.97;100564.41;5072811;28;20020;-62
2022/06/24 05:19:07;;;;;;;3.30;1.30;;;;;;;24.90;48.89;100569.75;5073084;28;20055;-61
2022/06/24 05:21:32;;;;;;;3.88;1.27;;;;;;;24.89;48.84;100566.22;5073861;28;20020;-61
2022/06/24 05:23:57;;;;;;;6.63;1.35;;;;;;;24.89;48.94;100574.22;5072600;28;20028;-61
2022/06/24 05:26:22;;;;;;;3.38;1.42;;;;;;;24.90;49.00;100586.56;5073516;28;20020;-61
2022/06/24 05:28:48;;;;;;;2.88;1.35;;;;;;;24.88;48.81;100585.91;5073370;28;20044;-61
2022/06/24 05:31:13;;;;;;;3.53;1.23;;;;;;;24.89;49.12;100584.06;5072361;28;20400;-61
2022/06/24 05:33:38;;;;;;;3.43;1.50;;;;;;;24.88;48.97;100583.25;5073085;28;20265;-61
2022/06/24 05:36:07;;;;;;;4.40;1.30;;;;;;;24.88;48.85;100585.91;5072746;28;20292;-61
2022/06/24 05:38:32;;;;;;;2.88;1.30;;;;;;;24.88;49.15;100580.59;5072507;28;20029;-61
2022/06/24 05:40:58;;;;;;;5.28;1.50;;;;;;;24.87;49.40;100586.91;5071846;28;20028;-61
2022/06/24 05:43:23;;;;;;;3.53;1.25;;;;;;;24.88;49.00;100582.41;5073030;28;20017;-61
2022/06/24 05:45:48;;;;;;;3.00;1.35;;;;;;;24.86;49.27;100579.91;5072231;28;20021;-61
2022/06/24 05:48:15;;;;;;;5.72;1.55;;;;;;;24.88;48.96;100582.41;5072529;28;20044;-61
2022/06/24 05:50:40;;;;;;;3.70;1.48;;;;;;;24.87;49.26;100578.91;5073134;28;20027;-63
2022/06/24 05:55:50;;;;;;;4.47;1.30;;;;;;;24.85;49.44;100570.28;5073289;28;20085;-61
2022/06/24 05:58:19;;;;;;;3.78;1.55;;;;;;;24.85;50.38;100580.94;5071253;28;20127;-61
2022/06/24 06:00:44;;;;;;;3.55;1.63;;;;;;;24.82;50.94;100567.97;5072012;28;20024;-62
2022/06/24 06:03:09;;;;;;;5.37;1.77;;;;;;;24.79;51.18;100569.13;5072690;28;20519;-61
2022/06/24 06:05:34;;;;;;;6.37;2.10;;;;;;;24.78;51.93;100574.63;5072857;28;20261;-61
2022/06/24 06:07:59;;;;;;;5.70;2.27;;;;;;;24.76;52.49;100574.81;5071588;28;20273;-61
2022/06/24 06:10:27;;;;;;;4.93;2.30;;;;;;;24.72;52.77;100573.50;5072615;28;20040;-62
2022/06/24 06:12:53;;;;;;;4.88;2.40;;;;;;;24.71;53.43;100579.84;5070537;28;20041;-62
2022/06/24 06:15:18;;;;;;;5.10;3.17;;;;;;;24.70;53.96;100580.81;5072315;28;20074;-61
2022/06/24 06:17:44;;;;;;;7.40;3.47;;;;;;;24.68;54.05;100584.69;5072795;28;20448;-61
2022/06/24 06:20:09;;;;;;;6.28;3.80;;;;;;;24.65;54.81;100587.69;5071650;28;20043;-61
2022/06/24 06:22:37;;;;;;;6.82;4.18;;;;;;;24.64;54.77;100586.84;5072740;28;20017;-60
2022/06/24 06:25:03;;;;;;;7.05;3.70;;;;;;;24.64;54.03;100576.19;5072274;28;20048;-59
2022/06/24 06:27:28;;;;;;;10.85;3.17;;;;;;;24.66;54.14;100570.69;5071541;28;20500;-58
2022/06/24 06:29:57;;;;;;;5.67;3.23;;;;;;;24.67;53.43;100575.84;5072409;28;20461;-59
2022/06/24 06:32:22;;;;;;;6.30;2.65;;;;;;;24.69;53.35;100578.34;5072809;28;20322;-59
2022/06/24 06:34:48;;;;;;;6.83;2.50;;;;;;;24.70;52.87;100580.81;5071767;28;20107;-59
2022/06/24 06:37:13;;;;;;;7.13;2.85;;;;;;;24.70;52.80;100580.81;5072477;28;20307;-58
2022/06/24 06:39:38;;;;;;;7.05;2.90;;;;;;;24.71;52.46;100585.16;5072379;28;20031;-58
2022/06/24 06:42:04;;;;;;;5.13;2.72;;;;;;;24.72;52.43;100585.97;5071326;28;20027;-58
2022/06/24 06:44:29;;;;;;;6.55;2.78;;;;;;;24.72;52.56;100584.16;5072184;28;20396;-59
2022/06/24 06:46:55;;;;;;;5.70;3.03;;;;;;;24.71;52.40;100576.34;5072460;28;20039;-59
2022/06/24 06:49:20;;;;;;;7.07;2.63;;;;;;;24.72;52.07;100576.19;5071663;28;20032;-59
2022/06/24 06:51:45;;;;;;;5.30;2.70;;;;;;;24.71;51.90;100577.16;5072603;28;20388;-59
2022/06/24 06:54:11;;;;;;;6.33;2.87;;;;;;;24.73;51.89;100574.31;5074817;28;20357;-59
2022/06/24 06:56:37;;;;;;;5.75;2.60;;;;;;;24.72;51.89;100573.50;5075479;28;20283;-59
2022/06/24 06:59:02;;;;;;;7.75;3.03;;;;;;;24.73;51.79;100572.50;5075624;28;20119;-59
2022/06/24 07:01:27;;;;;;;5.90;2.53;;;;;;;24.73;51.61;100575.16;5076353;28;20024;-58
2022/06/24 07:03:53;;;;;;;7.15;3.10;;;;;;;24.73;52.00;100566.34;5075599;28;20269;-59
2022/06/24 07:06:20;;;;;;;5.70;2.67;;;;;;;24.72;51.94;100565.50;5075898;28;20032;-58
2022/06/24 07:08:46;;;;;;;6.93;2.70;;;;;;;24.73;51.52;100577.00;5076027;28;20032;-59
2022/06/24 07:11:11;;;;;;;6.50;3.00;;;;;;;24.72;51.51;100578.84;5074890;28;20504;-57
2022/06/24 07:13:37;;;;;;;8.23;3.00;;;;;;;24.72;51.44;100562.84;5075926;28;20025;-58
2022/06/24 07:16:02;;;;;;;7.28;2.83;;;;;;;24.71;51.83;100555.84;5073856;28;20040;-59
2022/06/24 07:18:27;;;;;;;8.93;2.90;;;;;;;24.72;51.48;100557.53;5076084;28;20036;-59
2022/06/24 07:20:55;;;;;;;5.85;3.03;;;;;;;24.71;51.55;100553.19;5075912;28;20020;-59
2022/06/24 07:23:21;;;;;;;7.03;2.90;;;;;;;24.71;51.30;100547.84;5074902;28;20086;-59
2022/06/24 07:25:46;;;;;;;8.15;3.00;;;;;;;24.71;51.58;100550.53;5075546;28;20431;-59
2022/06/24 07:28:21;;;;;;;5.65;2.90;;;;;;;24.71;51.31;100553.19;5075108;28;20068;-59
2022/06/24 07:30:46;;;;;;;6.95;2.60;;;;;;;24.70;51.38;100553.34;5075084;28;20017;-59
2022/06/24 07:33:11;;;;;;;4.57;2.40;;;;;;;24.71;51.70;100563.03;5075436;28;20060;-59
2022/06/24 07:35:36;;;;;;;7.53;3.13;;;;;;;24.70;51.64;100569.34;5075752;28;20491;-59
2022/06/24 07:38:04;;;;;;;6.07;2.97;;;;;;;24.71;51.57;100571.03;5074565;28;20317;-59
2022/06/24 07:40:30;;;;;;;5.05;2.65;;;;;;;24.70;51.10;100575.50;5075454;28;20305;-59
2022/06/24 07:42:55;;;;;;;4.70;2.60;;;;;;;24.71;51.18;100592.34;5075356;28;20055;-58
2022/06/24 07:45:20;;;;;;;4.40;2.80;;;;;;;24.70;51.47;100594.16;5074705;28;20052;-59
2022/06/24 07:47:46;;;;;;;5.38;2.80;;;;;;;24.70;51.30;100596.81;5075456;28;20504;-59
2022/06/24 07:50:11;;;;;;;5.00;2.75;;;;;;;24.70;51.10;100594.16;5075043;28;20021;-59
2022/06/24 07:52:36;;;;;;;5.53;3.10;;;;;;;24.70;51.14;100596.00;5074435;28;20024;-59
2022/06/24 07:57:46;;;;;;;;;;;;;;;24.69;51.19;100595.16;5075784;28;20101;-59
2022/06/24 08:00:11;;;;;;;6.27;2.93;;;;;;;24.69;51.17;100591.66;5074279;28;19912;-59
2022/06/24 08:02:37;;;;;;;5.45;3.00;;;;;;;24.69;51.17;100597.84;5075145;28;20036;-59
2022/06/24 08:05:05;;;;;;;4.93;2.90;;;;;;;24.69;51.19;100597.84;5073872;28;20503;-59
2022/06/24 08:07:30;;;;;;;7.13;3.20;;;;;;;24.70;51.14;100603.97;5074412;28;20159;-59
2022/06/24 08:09:56;;;;;;;4.55;2.72;;;;;;;24.69;51.13;100597.00;5074682;28;20107;-58
2022/06/24 08:12:21;;;;;;;5.05;3.30;;;;;;;24.69;51.27;100603.16;5074085;28;20033;-59
2022/06/24 08:14:46;;;;;;;5.33;3.47;;;;;;;24.68;51.45;100593.50;5074859;28;20066;-59
2022/06/24 08:17:12;;;;;;;5.68;3.60;;;;;;;24.69;51.27;100597.84;5074401;28;20756;-59
2022/06/24 08:19:37;;;;;;;6.37;3.50;;;;;;;24.70;51.33;100596.81;5074170;28;20035;-59
2022/06/24 08:22:02;;;;;;;5.00;3.58;;;;;;;24.70;51.13;100596.81;5074695;28;20344;-59
2022/06/24 08:24:28;;;;;;;5.22;3.88;;;;;;;24.69;51.58;100581.84;5074685;28;20027;-59
2022/06/24 08:26:53;;;;;;;4.63;3.37;;;;;;;24.70;51.14;100586.16;5073857;28;20035;-58
2022/06/24 08:29:18;;;;;;;5.80;3.90;;;;;;;24.70;51.67;100590.66;5074276;28;20320;-59
2022/06/24 08:31:46;;;;;;;7.13;4.17;;;;;;;24.71;51.32;100587.00;5074550;28;20273;-59
2022/06/24 08:34:11;;;;;;;5.65;3.72;;;;;;;24.70;51.85;100580.81;5073578;28;20372;-59
2022/06/24 08:36:37;;;;;;;5.53;3.72;;;;;;;24.71;51.65;100576.34;5074499;28;20544;-59
2022/06/24 08:39:06;;;;;;;6.22;3.92;;;;;;;24.71;51.75;100579.00;5073946;28;20040;-59
2022/06/24 08:41:32;;;;;;;6.03;3.88;;;;;;;24.71;51.32;100585.16;5073734;28;20028;-58
2022/06/24 08:43:58;;;;;;;4.80;3.63;;;;;;;24.72;51.70;100585.97;5074066;28;20025;-59
2022/06/24 08:46:25;;;;;;;5.78;3.90;;;;;;;24.71;51.71;100593.16;5074209;28;20055;-59
2022/06/24 08:48:51;;;;;;;5.32;3.80;;;;;;;24.72;51.67;100591.31;5073347;28;20029;-58
2022/06/24 08:51:16;;;;;;;6.32;4.28;;;;;;;24.73;51.68;100587.66;5073826;28;20031;-59
2022/06/24 08:53:44;;;;;;;6.78;4.00;;;;;;;24.72;51.58;100580.66;5074016;28;20021;-58
2022/06/24 08:56:12;;;;;;;7.03;3.95;;;;;;;24.72;51.63;100578.84;5072996;28;20029;-59
2022/06/24 08:58:40;;;;;;;7.18;4.03;;;;;;;24.73;51.28;100582.31;5073787;28;20476;-59
2022/06/24 09:01:05;;;;;;;6.03;3.80;;;;;;;24.74;51.42;100581.34;5073652;28;20028;-59
2022/06/24 09:03:31;;;;;;;7.03;4.43;;;;;;;24.73;51.37;100580.47;5073151;28;20020;-59
2022/06/24 09:06:02;;;;;;;5.20;3.90;;;;;;;24.74;51.64;100584.00;5073505;28;20273;-59
2022/06/24 09:08:32;;;;;;;7.63;4.32;;;;;;;24.74;51.43;100582.16;5074024;28;20028;-59
2022/06/24 09:11:07;;;;;;;5.53;3.95;;;;;;;24.75;53.87;100580.31;5073626;28;20077;-58
2022/06/24 09:13:48;;;;;;;10.15;4.80;;;;;;;24.74;54.51;100574.16;5073723;28;20489;-58
2022/06/24 09:16:18;;;;;;;5.70;4.45;;;;;;;24.75;54.78;100586.47;5072580;28;20029;-58
2022/06/24 09:18:51;;;;;;;7.57;4.45;;;;;;;24.74;55.62;100576.81;5073714;28;20461;-58
2022/06/24 09:21:24;;;;;;;5.60;4.78;;;;;;;24.73;55.43;100583.13;5073238;28;20469;-58
2022/06/24 09:23:56;;;;;;;5.45;4.82;;;;;;;24.71;55.84;100582.50;5072701;28;20507;-58
2022/06/24 09:26:48;;;;;;;6.53;4.70;;;;;;;24.72;56.03;100585.97;5073369;28;20107;-57
2022/06/24 09:29:16;;;;;;;5.78;4.38;;;;;;;24.72;55.96;100578.00;5068915;28;20041;-57
2022/06/24 09:31:42;;;;;;;6.10;4.97;;;;;;;24.71;56.41;100581.69;5072515;28;20035;-57
2022/06/24 09:34:13;;;;;;;5.57;4.80;;;;;;;24.70;56.17;100578.16;5073092;28;20028;-57
2022/06/24 09:36:41;;;;;;;6.40;5.30;;;;;;;24.72;57.03;100583.31;5073154;28;20024;-57
2022/06/24 09:39:11;;;;;;;6.18;5.25;;;;;;;24.71;56.89;100577.16;5073039;28;20119;-57
2022/06/24 09:41:47;;;;;;;6.50;4.70;;;;;;;24.70;56.54;100578.16;5072123;28;20035;-57
2022/06/24 09:44:13;;;;;;;6.13;4.78;;;;;;;24.71;57.16;100574.50;5071961;28;20049;-57
2022/06/24 09:46:39;;;;;;;5.50;4.40;;;;;;;24.71;56.91;100568.34;5073033;28;20036;-57
2022/06/24 09:49:07;;;;;;;6.10;5.00;;;;;;;24.70;56.89;100572.00;5072928;28;20036;-57
2022/06/24 09:51:33;;;;;;;6.35;5.10;;;;;;;24.71;57.26;100565.69;5072312;28;20029;-57
2022/06/24 09:53:58;;;;;;;5.40;4.57;;;;;;;24.70;57.50;100569.34;5072621;28;20023;-57
2022/06/24 09:56:24;;;;;;;6.53;4.90;;;;;;;24.67;57.43;100570.50;5073059;28;20059;-57
2022/06/24 10:01:36;;;;;;;6.72;4.60;;;;;;;24.68;57.25;100572.19;5073139;28;20031;-58
2022/06/24 10:04:10;;;;;;;5.95;4.93;;;;;;;24.68;57.60;100580.19;5072675;28;20043;-59
2022/06/24 10:06:36;;;;;;;;;;;;;;;24.68;57.62;100582.03;5072506;28;20483;-58
2022/06/24 10:09:04;;;;;;;6.95;4.60;;;;;;;24.70;57.77;100585.34;5072443;28;19912;-58
2022/06/24 10:11:33;;;;;;;6.05;4.55;;;;;;;24.69;57.58;100571.19;5072857;28;20016;-57
2022/06/24 10:14:02;;;;;;;6.22;4.65;;;;;;;24.70;57.90;100569.34;5071735;28;20047;-58
2022/06/24 10:16:28;;;;;;;5.65;4.57;;;;;;;24.71;57.79;100577.16;5072674;28;20403;-58
2022/06/24 10:18:55;;;;;;;7.10;4.70;;;;;;;24.71;57.91;100579.00;5071711;28;20040;-58
2022/06/24 10:21:42;;;;;;;5.78;4.20;;;;;;;24.70;58.09;100580.81;5072671;28;20021;-58
2022/06/24 10:24:11;;;;;;;5.32;4.32;;;;;;;24.70;58.52;100606.66;5072099;28;20037;-58
2022/06/24 10:26:38;;;;;;;6.75;4.55;;;;;;;24.70;58.05;100627.97;5071456;28;20130;-61
2022/06/24 10:29:04;;;;;;;6.00;4.55;;;;;;;24.70;58.19;100630.63;5072033;28;20049;-58
2022/06/24 10:34:35;;;;;;;5.63;3.88;;;;;;;24.68;58.21;100624.66;5071776;28;20748;-58
2022/06/24 10:37:16;;;;;;;6.63;4.30;;;;;;;24.68;58.22;100614.00;5072276;28;20435;-58
2022/06/24 10:39:50;;;;;;;5.32;4.10;;;;;;;24.68;58.39;100619.31;5072413;28;20409;-57
2022/06/24 10:42:21;;;;;;;4.97;3.78;;;;;;;24.67;58.18;100623.81;5071651;28;20543;-57
2022/06/24 10:45:04;;;;;;;5.10;3.83;;;;;;;24.67;58.66;100623.81;5072605;28;20031;-57
2022/06/24 10:47:38;;;;;;;4.53;3.70;;;;;;;24.68;58.82;100635.31;5071687;28;20115;-57
2022/06/24 10:50:14;;;;;;;5.13;3.80;;;;;;;24.65;58.56;100633.00;5072063;28;20028;-57
2022/06/24 10:52:41;;;;;;;5.53;3.53;;;;;;;24.66;59.03;100634.63;5072561;28;20025;-58
2022/06/24 10:55:28;;;;;;;5.90;3.50;;;;;;;24.65;58.56;100631.16;5071479;28;20036;-58
2022/06/24 10:57:56;;;;;;;6.25;3.47;;;;;;;24.65;58.79;100622.34;5072110;28;20035;-58
2022/06/24 11:00:27;;;;;;;4.35;3.10;;;;;;;24.64;58.70;100616.16;5072315;28;20025;-58
2022/06/24 11:03:04;;;;;;;4.95;3.45;;;;;;;24.64;58.46;100610.81;5071515;28;20016;-58
2022/06/24 11:05:47;;;;;;;5.35;3.22;;;;;;;24.63;58.84;100612.66;5072412;28;20071;-58
2022/06/24 11:08:20;;;;;;;4.70;3.22;;;;;;;24.63;58.78;100617.19;5071136;28;20089;-57
2022/06/24 11:10:49;;;;;;;;;;;;;;;24.63;59.10;100611.84;5072489;28;20028;-58
2022/06/24 11:13:15;;;;;;;4.30;2.80;;;;;;;24.62;58.97;100608.38;5071653;28;19915;-58
2022/06/24 11:15:54;;;;;;;4.85;3.13;;;;;;;24.62;58.59;100597.72;5071654;28;20149;-58
2022/06/24 11:18:29;;;;;;;5.88;2.83;;;;;;;24.62;58.80;100600.38;5071665;28;20036;-58
2022/06/24 11:20:58;;;;;;;5.03;2.97;;;;;;;24.61;58.84;100596.03;5072109;28;20025;-58
2022/06/24 11:23:24;;;;;;;5.10;3.22;;;;;;;24.62;58.97;100597.72;5071228;28;20029;-58
2022/06/24 11:25:59;;;;;;;5.05;2.63;;;;;;;24.62;58.70;100589.72;5072221;28;20112;-58
2022/06/24 11:28:36;;;;;;;5.07;2.72;;;;;;;24.61;58.79;100582.72;5071846;28;20041;-58
2022/06/24 11:31:21;;;;;;;4.93;3.00;;;;;;;24.63;58.75;100586.03;5069886;28;20045;-58
2022/06/24 11:33:49;;;;;;;4.03;2.65;;;;;;;24.64;58.46;100584.19;5071882;28;20523;-58
2022/06/24 11:36:15;;;;;;;6.20;2.65;;;;;;;24.62;58.64;100584.38;5070855;28;20024;-57
2022/06/24 11:39:02;;;;;;;5.15;3.00;;;;;;;24.61;59.05;100581.91;5071899;28;20040;-58
2022/06/24 11:41:28;;;;;;;6.07;2.70;;;;;;;24.58;58.34;100576.91;5075647;28;20032;-58
2022/06/24 11:43:54;;;;;;;5.40;2.63;;;;;;;24.57;58.84;100583.22;5074794;28;20111;-58
2022/06/24 11:46:20;;;;;;;5.88;2.20;;;;;;;24.55;58.79;100585.22;5075012;28;20068;-58
2022/06/24 11:48:45;;;;;;;3.60;2.00;;;;;;;24.53;58.91;100590.72;5075284;28;20376;-58